Arizona State University, AZ

7:43 PM MST on August 30, 2014 (GMT -0700)
Down Stream Dam | Change Station
CLOSE
Current Station
Personal Weather Station
Location: Tempe, AZ
Elevation: 1122 ft
Nearby Weather Stations

Elev 1122 ft 33.43 °N, 111.95 °W | Updated 3 minutes ago

Partly Cloudy
Partly Cloudy
101.7 °F
Feels Like 97 °F
N
0.0
Wind Variable Wind from SW
Gusts 0.0 mph

Today
High -- | Low -- °F
--% Chance of Precip.
Yesterday
High -- | Low -- °F
Precip. -- in
6:00 AM 6:55 PM
Waxing Crescent, 26% visible
Pressure 29.62 in
Visibility 10.0 miles
Clouds Few 20000 ft
Heat Index 97 °F
Dew Point 37 °F
Humidity 11%
Rainfall 0.00 in
Snow Depth Not available.
UV 0 out of 12
Pollen 5.80 out of 12
PM2.5 Good
Flu Activity Not available.
METAR KPHX 310151Z COR VRB06KT 10SM FEW200 41/03 A2969 RMK AO2 SLP030 T04110028

More Conditions Fewer Conditions

Pressure 29.62 in
Visibility 10.0 miles
Clouds Few 20000 ft
Heat Index 97 °F
Dew Point 37 °F
Humidity 11%
Rainfall 0.00 in
Snow Depth Not available.
UV 0 out of 12
Pollen 5.80 out of 12
PM2.5 Good
Flu Activity Not available.
METAR KPHX 310151Z COR VRB06KT 10SM FEW200 41/03 A2969 RMK AO2 SLP030 T04110028

More Conditions Fewer Conditions

10-Day Weather Forecast

Almanac

Astronomy

Aug. 30, 2014 Rise Set
Actual Time 6:00 AM MST 6:55 PM MST
Civil Twilight 5:35 AM MST 7:20 PM MST
Nautical Twilight 5:05 AM MST 7:50 PM MST
Astronomical Twilight 4:34 AM MST 8:21 PM MST
Moon 10:35 AM MST (8/30) 9:49 PM MST (8/30)
Length of Visible Light 13h 45m
Length of Day
12h 54m
Tomorrow will be 1m 58s shorter.
Waxing Crescent, 26% of the Moon is Illuminated
Today
Waxing Crescent
Sep 2
First Quarter
Sep 8
Full
Sep 15
Last Quarter
Sep 24
New

Today's Extremes

State Highs State Lows

Community

WunderPhotos

Upload Photos

1,748,749 photos uploaded!

Nearby

Air Quality

  Air Quality AQ Index Pollutant
Yesterday Moderate
OZONE
Yesterday Good
PM10
Current Good
PM2.5
Saturday Moderate
OZONE
Saturday Good
PM10
Saturday Good
CO
Sunday Moderate
OZONE
Sunday Good
PM10
Sunday Good
CO

Snow Depth

Station Depth Elevation
Workman Creek 0 in 6900 ft
Beaver Head 16 in 7990 ft

Earthquake Activity

City Distance Mag. Time & Date
No recent earthquake activity has been reported nearby.
Minimum magnitude displayed is 2.5.

Coastal Water Temperatures

Place Temperature
No Stations Reporting

Nearby Weather Stations